Time;durP1;ratioP1;P1;durP2;ratioP2;P2;SDS_P1;SDS_P2;PMS_P1;PMS_P2;Temp;Humidity;BMP_temperature;BMP_pressure;BME280_temperature;BME280_humidity;BME280_pressure;Samples;Min_cycle;Max_cycle;Signal;HPM_P1;HPM_P2
2021/08/04 00:00:59;;;;;;;1.90;1.70;;;20.10;62.40;;;;;;4918135;29;20092;-78
2021/08/04 00:03:25;;;;;;;3.58;1.85;;;20.10;62.50;;;;;;4919504;29;20037;-77
2021/08/04 00:05:50;;;;;;;2.25;1.73;;;20.10;62.50;;;;;;4917608;29;20156;-78
2021/08/04 00:08:16;;;;;;;2.15;1.70;;;20.10;62.50;;;;;;4901564;29;20039;-78
2021/08/04 00:10:42;;;;;;;3.20;1.90;;;20.00;62.40;;;;;;4901615;29;20063;-78
2021/08/04 00:13:08;;;;;;;2.63;1.90;;;20.00;62.50;;;;;;4902206;29;20060;-77
2021/08/04 00:15:33;;;;;;;2.35;1.75;;;19.90;62.50;;;;;;4901774;29;20052;-79
2021/08/04 00:17:59;;;;;;;4.00;2.13;;;19.90;62.50;;;;;;4901523;29;20508;-78
2021/08/04 00:20:25;;;;;;;2.47;1.73;;;19.90;62.50;;;;;;4901769;29;20616;-77
2021/08/04 00:22:51;;;;;;;1.95;1.60;;;19.90;62.60;;;;;;4902305;29;20472;-77
2021/08/04 00:25:16;;;;;;;3.03;2.08;;;19.90;62.60;;;;;;4901179;29;20040;-78
2021/08/04 00:27:42;;;;;;;3.67;1.80;;;19.80;62.60;;;;;;4901791;29;20427;-78
2021/08/04 00:30:08;;;;;;;1.95;1.73;;;19.80;62.60;;;;;;4917062;29;20024;-77
2021/08/04 00:32:34;;;;;;;3.05;2.00;;;19.80;62.70;;;;;;4918174;29;20111;-79
2021/08/04 00:35:00;;;;;;;3.67;2.33;;;19.70;62.60;;;;;;4901432;29;20123;-78
2021/08/04 00:37:27;;;;;;;3.22;1.98;;;19.70;62.70;;;;;;4902009;29;20091;-77
2021/08/04 00:39:52;;;;;;;3.08;1.88;;;19.70;62.70;;;;;;4917648;29;20040;-77
2021/08/04 00:42:19;;;;;;;3.60;2.10;;;19.60;62.70;;;;;;4916853;29;20482;-77
2021/08/04 00:44:49;;;;;;;2.33;1.92;;;19.60;62.70;;;;;;4901602;29;20043;-77
2021/08/04 00:47:17;;;;;;;3.60;2.10;;;19.60;62.80;;;;;;4917127;29;20448;-78
2021/08/04 00:49:44;;;;;;;3.55;2.15;;;19.60;62.80;;;;;;4916715;29;20105;-78
2021/08/04 00:52:10;;;;;;;2.15;1.83;;;19.50;62.70;;;;;;4916841;29;20445;-78
2021/08/04 00:54:36;;;;;;;3.13;2.10;;;19.60;62.80;;;;;;4916894;29;20028;-78
2021/08/04 00:57:03;;;;;;;2.15;1.80;;;19.50;62.80;;;;;;4916625;29;20091;-78
2021/08/04 00:59:29;;;;;;;3.17;2.17;;;19.50;62.80;;;;;;4916397;29;20028;-78
2021/08/04 01:02:06;;;;;;;3.53;2.08;;;19.50;62.80;;;;;;4916555;29;20039;-78
2021/08/04 01:04:39;;;;;;;3.15;1.92;;;19.40;62.90;;;;;;4917820;29;20125;-78
2021/08/04 01:07:17;;;;;;;2.42;1.98;;;19.40;62.90;;;;;;4900841;29;20028;-78
2021/08/04 01:09:54;;;;;;;2.25;1.77;;;19.40;62.90;;;;;;4916502;29;20036;-77
2021/08/04 01:12:30;;;;;;;3.53;1.90;;;19.30;62.90;;;;;;4931503;29;20028;-79
2021/08/04 01:15:00;;;;;;;2.70;1.95;;;19.30;62.90;;;;;;4900742;29;20044;-77
2021/08/04 01:17:26;;;;;;;2.47;1.98;;;19.30;62.90;;;;;;4900676;29;20063;-77
2021/08/04 01:20:02;;;;;;;3.50;2.38;;;19.30;62.90;;;;;;4900517;29;20424;-77
2021/08/04 01:22:41;;;;;;;2.83;1.92;;;19.20;63.00;;;;;;4900617;29;20032;-77
2021/08/04 01:25:13;;;;;;;3.60;2.10;;;19.20;63.00;;;;;;4916082;29;20032;-77
2021/08/04 01:28:11;;;;;;;3.70;2.33;;;19.20;63.00;;;;;;4916848;29;20043;-77
2021/08/04 01:30:39;;;;;;;3.05;1.83;;;19.20;63.00;;;;;;4916093;29;20123;-77
2021/08/04 01:33:05;;;;;;;3.10;2.08;;;19.10;62.90;;;;;;4900970;29;20076;-78
2021/08/04 01:35:31;;;;;;;3.28;2.05;;;19.10;63.10;;;;;;4917365;29;20029;-77
2021/08/04 01:37:58;;;;;;;3.47;2.50;;;19.10;63.10;;;;;;4916009;29;20029;-77
2021/08/04 01:40:26;;;;;;;2.83;2.00;;;19.10;63.10;;;;;;4916036;29;20500;-77
2021/08/04 01:42:53;;;;;;;4.35;2.00;;;19.10;63.10;;;;;;4916085;29;20039;-77
2021/08/04 01:45:20;;;;;;;2.95;2.03;;;19.00;63.20;;;;;;4900516;29;20499;-80
2021/08/04 01:47:46;;;;;;;2.22;1.80;;;19.00;63.10;;;;;;4916175;29;20136;-77
2021/08/04 01:50:14;;;;;;;3.15;2.22;;;19.00;63.20;;;;;;4917306;29;20032;-77
2021/08/04 01:52:40;;;;;;;3.58;2.20;;;18.90;63.20;;;;;;4932013;29;20051;-77
2021/08/04 01:55:09;;;;;;;4.25;2.28;;;18.90;63.20;;;;;;4900374;29;20469;-78
2021/08/04 01:57:37;;;;;;;3.40;2.10;;;18.90;63.20;;;;;;4900523;29;20062;-77
2021/08/04 02:00:04;;;;;;;2.88;2.10;;;18.90;63.20;;;;;;4916072;29;20078;-77
2021/08/04 02:02:39;;;;;;;3.22;2.20;;;18.90;63.30;;;;;;4915789;29;20044;-78
2021/08/04 02:05:06;;;;;;;2.38;1.90;;;18.80;63.20;;;;;;4901045;29;20428;-77
2021/08/04 02:08:02;;;;;;;3.95;2.13;;;18.80;63.30;;;;;;4917558;29;20028;-77
2021/08/04 02:10:37;;;;;;;2.65;1.90;;;18.80;63.50;;;;;;4916106;29;20043;-77
2021/08/04 02:13:25;;;;;;;2.83;2.08;;;18.80;63.40;;;;;;4916453;29;20091;-76
2021/08/04 02:15:56;;;;;;;3.03;1.80;;;18.70;63.40;;;;;;4900090;29;20111;-77
2021/08/04 02:18:28;;;;;;;2.50;1.80;;;18.70;63.40;;;;;;4915453;29;20135;-79
2021/08/04 02:20:54;;;;;;;3.20;2.05;;;18.70;63.40;;;;;;4932400;29;20376;-77
2021/08/04 02:23:22;;;;;;;4.88;2.08;;;18.70;63.50;;;;;;4900692;29;20038;-77
2021/08/04 02:26:05;;;;;;;2.75;2.08;;;18.60;63.40;;;;;;4903824;29;20028;-77
2021/08/04 02:28:34;;;;;;;3.55;2.10;;;18.60;63.60;;;;;;4920978;29;20028;-77
2021/08/04 02:31:01;;;;;;;3.35;1.92;;;18.60;63.40;;;;;;4919188;29;20561;-78
2021/08/04 02:33:28;;;;;;;2.95;2.15;;;18.50;63.50;;;;;;4919219;29;20064;-77
2021/08/04 02:35:55;;;;;;;2.92;2.13;;;18.50;63.50;;;;;;4904146;29;20032;-77
2021/08/04 02:38:21;;;;;;;2.38;1.90;;;18.50;63.50;;;;;;4919290;29;20036;-78
2021/08/04 02:40:47;;;;;;;2.53;2.00;;;18.50;63.50;;;;;;4919024;29;20028;-77
2021/08/04 02:43:14;;;;;;;3.67;2.03;;;18.50;63.60;;;;;;4919096;29;20047;-76
2021/08/04 02:45:41;;;;;;;3.22;2.10;;;18.50;63.60;;;;;;4918904;29;20032;-77
2021/08/04 02:48:07;;;;;;;3.03;2.00;;;18.40;63.60;;;;;;4903263;29;20042;-77
2021/08/04 02:50:38;;;;;;;2.03;1.80;;;18.40;63.60;;;;;;4903284;29;20096;-78
2021/08/04 02:53:04;;;;;;;2.38;1.65;;;18.40;63.60;;;;;;4903268;29;20043;-77
2021/08/04 02:55:31;;;;;;;3.92;2.30;;;18.40;63.60;;;;;;4919040;29;20133;-77
2021/08/04 02:57:57;;;;;;;2.92;2.05;;;18.40;63.70;;;;;;4918663;29;20507;-77
2021/08/04 03:00:23;;;;;;;3.10;2.08;;;18.30;63.70;;;;;;4903330;29;20044;-78
2021/08/04 03:02:48;;;;;;;3.25;2.13;;;18.30;63.70;;;;;;4902967;29;20140;-77
2021/08/04 03:05:14;;;;;;;3.00;1.92;;;18.30;63.70;;;;;;4918554;29;20476;-77
2021/08/04 03:07:40;;;;;;;3.00;2.13;;;18.30;63.70;;;;;;4902616;29;20088;-77
2021/08/04 03:10:06;;;;;;;3.15;2.10;;;18.30;63.70;;;;;;4902900;29;20024;-77
2021/08/04 03:12:32;;;;;;;3.08;2.10;;;18.20;63.70;;;;;;4902885;29;20063;-77
2021/08/04 03:14:58;;;;;;;3.03;2.20;;;18.20;63.70;;;;;;4902664;29;20509;-77
2021/08/04 03:17:24;;;;;;;3.30;1.73;;;18.20;63.70;;;;;;4918441;29;20065;-77
2021/08/04 03:19:50;;;;;;;3.22;2.13;;;18.20;63.80;;;;;;4918697;29;20397;-77
2021/08/04 03:22:15;;;;;;;2.60;1.90;;;18.20;63.80;;;;;;4918239;29;20047;-77
2021/08/04 03:24:41;;;;;;;2.53;1.95;;;18.20;63.80;;;;;;4902614;29;20083;-77
2021/08/04 03:27:07;;;;;;;3.25;2.20;;;18.10;63.80;;;;;;4918266;29;20094;-77
2021/08/04 03:29:33;;;;;;;3.60;2.00;;;18.10;63.90;;;;;;4902598;29;20396;-77
2021/08/04 03:31:59;;;;;;;2.22;1.80;;;18.10;63.90;;;;;;4918103;29;20034;-77
2021/08/04 03:34:24;;;;;;;3.22;2.20;;;18.10;63.90;;;;;;4917442;29;20028;-77
2021/08/04 03:36:50;;;;;;;2.00;1.83;;;18.10;63.90;;;;;;4917797;29;20034;-77
2021/08/04 03:39:16;;;;;;;2.92;1.90;;;18.00;63.90;;;;;;4902426;29;20043;-77
2021/08/04 03:41:41;;;;;;;2.95;2.22;;;18.00;64.00;;;;;;4902249;29;20040;-78
2021/08/04 03:44:07;;;;;;;2.70;2.05;;;18.00;64.00;;;;;;4902711;29;20032;-77
2021/08/04 03:46:33;;;;;;;2.60;1.80;;;18.00;64.00;;;;;;4917992;29;20404;-77
2021/08/04 03:48:58;;;;;;;3.15;1.85;;;18.00;64.00;;;;;;4919306;29;20030;-77
2021/08/04 03:51:24;;;;;;;3.15;2.25;;;17.90;64.10;;;;;;4918734;29;20359;-77
2021/08/04 03:53:50;;;;;;;3.33;2.05;;;17.90;64.00;;;;;;4918807;29;20036;-77
2021/08/04 03:56:16;;;;;;;3.42;2.30;;;17.90;64.00;;;;;;4918151;29;20099;-77
2021/08/04 03:58:41;;;;;;;2.72;1.98;;;17.90;64.10;;;;;;4902076;29;20071;-78
2021/08/04 04:01:07;;;;;;;3.40;1.88;;;17.80;64.10;;;;;;4918703;29;20044;-79
2021/08/04 04:03:33;;;;;;;2.33;1.90;;;17.90;64.10;;;;;;4917675;29;20476;-79
2021/08/04 04:05:58;;;;;;;2.13;1.92;;;17.80;64.10;;;;;;4902112;29;20115;-77
2021/08/04 04:08:24;;;;;;;2.65;2.00;;;17.80;64.10;;;;;;4902229;29;20043;-78
2021/08/04 04:10:50;;;;;;;2.75;2.00;;;17.80;64.10;;;;;;4902079;29;20480;-77
2021/08/04 04:13:16;;;;;;;2.55;1.92;;;17.80;64.10;;;;;;4886911;29;20020;-77
2021/08/04 04:15:41;;;;;;;2.58;2.20;;;17.80;64.20;;;;;;4917505;29;20400;-77
2021/08/04 04:18:07;;;;;;;2.88;1.98;;;17.70;64.20;;;;;;4901693;29;20473;-77
2021/08/04 04:20:33;;;;;;;2.15;1.92;;;17.70;64.20;;;;;;4918005;29;20422;-77
2021/08/04 04:22:59;;;;;;;3.95;2.20;;;17.70;64.20;;;;;;4918558;29;20442;-78
2021/08/04 04:25:24;;;;;;;2.78;2.03;;;17.70;64.30;;;;;;4918720;29;20064;-79
2021/08/04 04:27:50;;;;;;;2.88;2.08;;;17.70;64.30;;;;;;4918537;29;20044;-77
2021/08/04 04:30:16;;;;;;;3.00;2.03;;;17.60;64.20;;;;;;4901594;29;20115;-77
2021/08/04 04:32:42;;;;;;;3.50;2.10;;;17.70;64.40;;;;;;4917299;29;20374;-78
2021/08/04 04:35:08;;;;;;;2.90;2.10;;;17.60;64.30;;;;;;4901416;29;20056;-77
2021/08/04 04:37:34;;;;;;;2.90;2.10;;;17.60;64.30;;;;;;4901211;29;20440;-77
2021/08/04 04:40:00;;;;;;;2.10;1.75;;;17.60;64.40;;;;;;4917551;29;20116;-77
2021/08/04 04:42:26;;;;;;;2.78;1.92;;;17.60;64.40;;;;;;4917002;29;20036;-77
2021/08/04 04:44:52;;;;;;;3.05;2.00;;;17.60;64.50;;;;;;4916758;29;20465;-78
2021/08/04 04:47:17;;;;;;;2.47;2.00;;;17.60;64.50;;;;;;4916568;29;20036;-77
2021/08/04 04:49:43;;;;;;;2.55;2.00;;;17.60;64.50;;;;;;4900969;29;20090;-77
2021/08/04 04:52:09;;;;;;;2.67;1.95;;;17.50;64.50;;;;;;4901291;29;20492;-77
2021/08/04 04:54:34;;;;;;;2.88;2.05;;;17.50;64.50;;;;;;4917594;29;20035;-76
2021/08/04 04:57:00;;;;;;;1.85;1.70;;;17.50;64.60;;;;;;4916984;29;20028;-78
2021/08/04 04:59:26;;;;;;;2.80;2.00;;;17.50;64.60;;;;;;4917147;29;20043;-77
2021/08/04 05:01:52;;;;;;;2.50;1.95;;;17.50;64.60;;;;;;4916423;29;20028;-77
2021/08/04 05:04:17;;;;;;;2.60;1.92;;;17.50;64.60;;;;;;4916458;29;20039;-76
2021/08/04 05:06:43;;;;;;;2.25;1.90;;;17.50;64.70;;;;;;4916608;29;20044;-77
2021/08/04 05:09:09;;;;;;;3.13;2.00;;;17.40;64.60;;;;;;4916397;29;20032;-77
2021/08/04 05:11:34;;;;;;;3.00;2.03;;;17.40;64.60;;;;;;4900720;29;20036;-77
2021/08/04 05:14:00;;;;;;;2.05;1.77;;;17.40;64.60;;;;;;4900717;29;20030;-77
2021/08/04 05:16:26;;;;;;;2.33;1.80;;;17.40;64.70;;;;;;4916088;29;20087;-77
2021/08/04 05:18:52;;;;;;;3.13;1.90;;;17.40;64.70;;;;;;4916556;29;20032;-77
2021/08/04 05:21:18;;;;;;;2.97;2.08;;;17.40;64.80;;;;;;4916416;29;20044;-78
2021/08/04 05:23:44;;;;;;;2.38;1.88;;;17.40;64.80;;;;;;4915984;29;20430;-77
2021/08/04 05:26:09;;;;;;;2.85;2.00;;;17.40;64.90;;;;;;4916152;29;20059;-77
2021/08/04 05:28:35;;;;;;;2.33;1.80;;;17.40;64.90;;;;;;4900595;29;20040;-78
2021/08/04 05:31:01;;;;;;;2.40;1.85;;;17.40;64.90;;;;;;4916232;29;20099;-76
2021/08/04 05:33:26;;;;;;;2.60;1.90;;;17.40;64.90;;;;;;4916295;29;20107;-76
2021/08/04 05:35:52;;;;;;;2.40;2.00;;;17.30;64.90;;;;;;4901246;29;20060;-78
2021/08/04 05:38:18;;;;;;;2.38;1.83;;;17.30;64.90;;;;;;4900401;29;20430;-77
2021/08/04 05:40:44;;;;;;;2.08;1.77;;;17.30;64.90;;;;;;4916127;29;20036;-79
2021/08/04 05:43:09;;;;;;;2.00;1.67;;;17.30;65.00;;;;;;4916183;29;20060;-77
2021/08/04 05:45:37;;;;;;;3.72;1.90;;;17.30;65.00;;;;;;4900433;29;20385;-78
2021/08/04 05:48:04;;;;;;;2.42;1.90;;;17.30;65.10;;;;;;4900433;29;20040;-78
2021/08/04 05:50:30;;;;;;;2.47;1.98;;;17.30;65.10;;;;;;4900025;29;20065;-78
2021/08/04 05:52:55;;;;;;;2.60;2.00;;;17.40;65.10;;;;;;4900295;29;20033;-78
2021/08/04 05:55:21;;;;;;;2.83;1.98;;;17.30;65.10;;;;;;4900299;29;20556;-78
2021/08/04 05:57:48;;;;;;;2.20;1.80;;;17.30;65.20;;;;;;4916835;29;20118;-78
2021/08/04 06:00:13;;;;;;;3.17;2.10;;;17.40;65.20;;;;;;4904363;29;20532;-77
2021/08/04 06:02:39;;;;;;;2.40;1.80;;;17.30;65.20;;;;;;4919737;29;20024;-78
2021/08/04 06:05:06;;;;;;;2.63;2.00;;;17.30;65.20;;;;;;4904090;29;20359;-77
2021/08/04 06:07:31;;;;;;;2.50;1.88;;;17.30;65.20;;;;;;4903594;29;20039;-77
2021/08/04 06:09:57;;;;;;;2.65;1.90;;;17.40;65.30;;;;;;4903876;29;20478;-77
2021/08/04 06:12:23;;;;;;;2.83;2.10;;;17.40;65.30;;;;;;4920255;29;20548;-77
2021/08/04 06:14:49;;;;;;;2.75;2.15;;;17.40;65.40;;;;;;4919529;29;20056;-77
2021/08/04 06:17:14;;;;;;;2.28;1.85;;;17.40;65.30;;;;;;4903994;29;20136;-76
2021/08/04 06:19:40;;;;;;;2.35;1.92;;;17.40;65.40;;;;;;4919961;29;20469;-77
2021/08/04 06:22:06;;;;;;;2.83;2.03;;;17.40;65.50;;;;;;4903517;29;20119;-77
2021/08/04 06:24:32;;;;;;;2.40;1.90;;;17.40;65.50;;;;;;4903641;29;20044;-76
2021/08/04 06:26:58;;;;;;;2.47;1.88;;;17.40;65.50;;;;;;4903728;29;20028;-76
2021/08/04 06:29:24;;;;;;;2.58;2.03;;;17.40;65.50;;;;;;4903768;29;20047;-77
2021/08/04 06:31:50;;;;;;;2.53;2.08;;;17.40;65.50;;;;;;4903704;29;20502;-77
2021/08/04 06:34:16;;;;;;;2.22;1.83;;;17.40;65.50;;;;;;4920920;29;20056;-76
2021/08/04 06:36:41;;;;;;;1.85;1.60;;;17.50;65.60;;;;;;4903545;29;20028;-79
2021/08/04 06:39:07;;;;;;;2.40;2.10;;;17.50;65.60;;;;;;4918709;29;20043;-76
2021/08/04 06:41:33;;;;;;;2.78;1.95;;;17.50;65.60;;;;;;4904001;29;20047;-76
2021/08/04 06:43:59;;;;;;;2.72;2.10;;;17.50;65.60;;;;;;4919065;29;20028;-76
2021/08/04 06:46:35;;;;;;;3.00;2.20;;;17.50;65.60;;;;;;4904078;29;20123;-76
2021/08/04 06:49:02;;;;;;;3.88;2.20;;;17.50;65.70;;;;;;4919060;29;20092;-76
2021/08/04 06:51:28;;;;;;;2.28;1.88;;;17.50;65.60;;;;;;4918801;29;20477;-77
2021/08/04 06:53:55;;;;;;;2.53;2.00;;;17.50;65.60;;;;;;4919119;29;20047;-77
2021/08/04 06:56:21;;;;;;;3.13;2.05;;;17.60;65.70;;;;;;4919428;29;20055;-77
2021/08/04 06:58:47;;;;;;;3.20;2.03;;;17.60;65.70;;;;;;4903027;29;20040;-76
2021/08/04 07:01:13;;;;;;;3.25;2.10;;;17.60;65.70;;;;;;4918612;29;20510;-75
2021/08/04 07:03:39;;;;;;;3.17;2.17;;;17.60;66.40;;;;;;4918988;29;20047;-75
2021/08/04 07:06:09;;;;;;;2.70;2.40;;;17.60;65.80;;;;;;4902784;29;20123;-75
2021/08/04 07:08:39;;;;;;;2.80;2.13;;;17.60;65.80;;;;;;4919501;29;20028;-75
2021/08/04 07:11:06;;;;;;;3.38;2.50;;;17.70;65.90;;;;;;4902042;29;20033;-76
2021/08/04 07:13:32;;;;;;;2.78;2.10;;;17.70;65.90;;;;;;4918793;29;20028;-75
2021/08/04 07:15:58;;;;;;;3.30;2.30;;;17.70;65.90;;;;;;4902632;29;20052;-75
2021/08/04 07:18:24;;;;;;;2.42;2.08;;;17.80;66.00;;;;;;4918489;29;20036;-76
2021/08/04 07:20:50;;;;;;;3.28;2.40;;;17.80;65.90;;;;;;4918185;29;20083;-76
2021/08/04 07:23:16;;;;;;;3.45;2.30;;;17.80;65.90;;;;;;4918144;29;20433;-74
2021/08/04 07:25:42;;;;;;;3.00;2.30;;;17.80;65.90;;;;;;4919085;29;20044;-76
2021/08/04 07:28:07;;;;;;;3.20;2.40;;;17.80;65.90;;;;;;4918030;29;20043;-74
2021/08/04 07:30:34;;;;;;;2.30;1.98;;;17.90;66.00;;;;;;4918280;29;20032;-76
2021/08/04 07:32:59;;;;;;;2.65;2.17;;;17.90;66.00;;;;;;4919368;29;20048;-75
2021/08/04 07:35:26;;;;;;;2.78;2.30;;;17.90;66.00;;;;;;4903312;29;20131;-75
2021/08/04 07:37:52;;;;;;;4.00;2.50;;;17.90;66.00;;;;;;4902294;29;20180;-75
2021/08/04 07:40:18;;;;;;;2.72;2.13;;;18.00;66.00;;;;;;4917769;29;20518;-76
2021/08/04 07:42:49;;;;;;;2.80;2.40;;;18.00;66.10;;;;;;4902725;29;20032;-77
2021/08/04 07:45:16;;;;;;;3.20;2.30;;;18.00;66.10;;;;;;4919455;29;20544;-75
2021/08/04 07:47:42;;;;;;;2.85;2.20;;;18.10;66.10;;;;;;4918245;29;20461;-75
2021/08/04 07:50:09;;;;;;;2.35;2.05;;;18.10;66.10;;;;;;4917759;29;20043;-75
2021/08/04 07:52:35;;;;;;;2.53;2.05;;;18.10;66.10;;;;;;4919279;29;20034;-75
2021/08/04 07:55:03;;;;;;;2.58;2.30;;;18.10;66.00;;;;;;4919052;29;20444;-77
2021/08/04 07:57:29;;;;;;;3.28;2.30;;;18.20;66.10;;;;;;4917598;29;20032;-76
2021/08/04 07:59:54;;;;;;;2.88;2.20;;;18.20;66.00;;;;;;4902068;29;20125;-75
2021/08/04 08:02:20;;;;;;;2.92;2.35;;;18.20;66.00;;;;;;4919121;29;20036;-75
2021/08/04 08:04:46;;;;;;;2.67;2.10;;;18.30;66.00;;;;;;4917836;29;20389;-74
2021/08/04 08:07:12;;;;;;;3.38;2.30;;;18.30;65.90;;;;;;4917850;29;20043;-75
2021/08/04 08:09:37;;;;;;;2.42;1.92;;;18.30;65.80;;;;;;4917759;29;20024;-75
2021/08/04 08:12:05;;;;;;;2.90;2.17;;;18.40;65.70;;;;;;4918084;29;20069;-76
2021/08/04 08:14:31;;;;;;;2.70;2.03;;;18.50;65.70;;;;;;4901556;29;20064;-76
2021/08/04 08:16:57;;;;;;;3.10;2.30;;;18.50;65.60;;;;;;4902151;29;20024;-76
2021/08/04 08:19:24;;;;;;;3.03;2.28;;;18.60;65.50;;;;;;4917944;29;20413;-77
2021/08/04 08:21:50;;;;;;;2.92;2.22;;;18.70;65.40;;;;;;4916559;29;20111;-77
2021/08/04 08:24:16;;;;;;;2.55;2.00;;;18.70;65.40;;;;;;4917530;29;20035;-77
2021/08/04 08:26:41;;;;;;;3.00;2.20;;;18.80;65.30;;;;;;4916872;29;20043;-76
2021/08/04 08:29:07;;;;;;;3.22;2.58;;;18.80;65.20;;;;;;4917030;29;20059;-75
2021/08/04 08:31:35;;;;;;;3.38;2.38;;;18.90;65.10;;;;;;4917296;29;20500;-76
2021/08/04 08:34:02;;;;;;;3.05;2.28;;;19.00;65.00;;;;;;4917304;29;20024;-77
2021/08/04 08:36:28;;;;;;;2.22;2.03;;;19.00;64.80;;;;;;4901238;29;20084;-78
2021/08/04 08:38:54;;;;;;;2.70;2.30;;;19.10;64.80;;;;;;4901639;29;20126;-77
2021/08/04 08:41:20;;;;;;;2.75;2.00;;;19.20;64.70;;;;;;4917384;29;20083;-76
2021/08/04 08:43:47;;;;;;;2.90;2.22;;;19.30;64.60;;;;;;4916760;29;20028;-76
2021/08/04 08:46:14;;;;;;;2.70;1.98;;;19.40;64.50;;;;;;4916964;29;20220;-75
2021/08/04 08:48:45;;;;;;;3.00;2.30;;;19.50;64.50;;;;;;4916585;29;20449;-77
2021/08/04 08:51:10;;;;;;;2.75;2.10;;;19.50;64.40;;;;;;4916327;29;20496;-76
2021/08/04 08:53:38;;;;;;;2.58;2.17;;;19.60;64.30;;;;;;4900974;29;20032;-77
2021/08/04 08:56:07;;;;;;;2.78;2.05;;;19.70;64.30;;;;;;4916642;29;20028;-76
2021/08/04 08:58:32;;;;;;;2.53;2.20;;;19.80;64.20;;;;;;4917224;29;20553;-77
2021/08/04 09:00:59;;;;;;;2.53;2.10;;;19.80;64.10;;;;;;4901043;29;20075;-75
2021/08/04 09:03:25;;;;;;;2.67;2.10;;;19.90;64.00;;;;;;4900612;29;20047;-76
2021/08/04 09:05:53;;;;;;;2.53;2.10;;;20.00;64.00;;;;;;4900705;29;20039;-77
2021/08/04 09:08:27;;;;;;;2.28;1.83;;;20.10;63.90;;;;;;4916726;29;20114;-76
2021/08/04 09:10:54;;;;;;;2.37;2.00;;;20.20;63.90;;;;;;4917377;29;20047;-75
2021/08/04 09:13:31;;;;;;;3.08;2.08;;;20.30;63.70;;;;;;4917352;29;20300;-76
2021/08/04 09:16:05;;;;;;;2.92;2.10;;;20.40;63.70;;;;;;4916017;29;20131;-78
2021/08/04 09:18:47;;;;;;;3.00;2.10;;;20.50;63.60;;;;;;4915852;29;20040;-78
2021/08/04 09:21:16;;;;;;;2.83;2.15;;;20.60;63.60;;;;;;4916005;29;20056;-77
2021/08/04 09:23:48;;;;;;;2.40;1.67;;;20.60;63.40;;;;;;4900618;29;20024;-76
2021/08/04 09:26:19;;;;;;;2.20;1.80;;;20.70;63.40;;;;;;4900458;29;20039;-78
2021/08/04 09:29:07;;;;;;;2.67;1.92;;;20.80;63.30;;;;;;4915895;29;20064;-77
2021/08/04 09:31:54;;;;;;;2.13;1.70;;;20.90;63.40;;;;;;4900673;29;20035;-77
2021/08/04 09:34:34;;;;;;;1.98;1.52;;;21.00;63.30;;;;;;4919247;29;20036;-76
2021/08/04 09:37:04;;;;;;;2.22;1.60;;;21.10;63.20;;;;;;4920028;29;20060;-77
2021/08/04 09:39:31;;;;;;;2.40;1.60;;;21.20;63.10;;;;;;4933613;29;20047;-76
2021/08/04 09:41:58;;;;;;;1.50;1.40;;;21.30;63.00;;;;;;4916704;29;20032;-77
2021/08/04 09:44:24;;;;;;;2.03;1.80;;;21.40;63.00;;;;;;4900407;29;20046;-76
2021/08/04 09:47:05;;;;;;;1.80;1.50;;;21.50;62.90;;;;;;4916476;29;20032;-76
2021/08/04 09:49:31;;;;;;;1.65;1.40;;;21.70;62.90;;;;;;4932305;29;20039;-76
2021/08/04 09:52:11;;;;;;;2.38;1.63;;;21.70;62.70;;;;;;4917922;29;20135;-77
2021/08/04 09:54:43;;;;;;;1.70;1.60;;;21.80;62.70;;;;;;4916388;29;20039;-77
2021/08/04 09:57:11;;;;;;;1.98;1.40;;;22.00;62.60;;;;;;4900132;29;20496;-76
2021/08/04 09:59:38;;;;;;;2.47;1.50;;;22.00;62.50;;;;;;4916829;29;20038;-76
2021/08/04 10:02:04;;;;;;;1.77;1.45;;;22.10;62.40;;;;;;4916901;29;20091;-76
2021/08/04 10:04:31;;;;;;;2.10;1.52;;;22.30;62.40;;;;;;4915926;29;20469;-77
2021/08/04 10:07:05;;;;;;;2.70;1.48;;;22.30;62.40;;;;;;4915918;29;20063;-75
2021/08/04 10:09:31;;;;;;;1.90;1.40;;;22.40;62.30;;;;;;4916155;29;20032;-75
2021/08/04 10:11:57;;;;;;;1.35;1.23;;;22.50;62.20;;;;;;4900500;29;20051;-78
2021/08/04 10:14:23;;;;;;;1.30;1.20;;;22.60;62.20;;;;;;4900169;29;20113;-78
2021/08/04 10:16:50;;;;;;;1.45;1.35;;;22.70;62.10;;;;;;4916662;29;20425;-75
2021/08/04 10:19:17;;;;;;;1.83;1.50;;;22.80;62.00;;;;;;4915767;29;20040;-77
2021/08/04 10:21:47;;;;;;;1.67;1.30;;;22.90;61.90;;;;;;4900431;29;20529;-75
2021/08/04 10:24:14;;;;;;;2.97;1.77;;;23.00;61.90;;;;;;4931580;29;20055;-76
2021/08/04 10:26:41;;;;;;;1.63;1.48;;;23.10;61.90;;;;;;4915698;29;20028;-75
2021/08/04 10:29:08;;;;;;;1.45;1.35;;;23.10;61.70;;;;;;4917688;29;20044;-76
2021/08/04 10:31:35;;;;;;;1.50;1.40;;;23.20;61.50;;;;;;4900727;29;20036;-77
2021/08/04 10:34:03;;;;;;;1.90;1.50;;;23.30;61.40;;;;;;4917361;29;20028;-75
2021/08/04 10:36:38;;;;;;;2.17;1.67;;;23.40;61.10;;;;;;4915936;29;20091;-74
2021/08/04 10:39:10;;;;;;;1.90;1.60;;;23.50;60.60;;;;;;4917214;29;20040;-75
2021/08/04 10:41:37;;;;;;;2.15;1.58;;;23.50;60.20;;;;;;4931136;29;20456;-75
2021/08/04 10:44:19;;;;;;;2.67;1.80;;;23.60;59.90;;;;;;4915906;29;20088;-76
2021/08/04 10:46:45;;;;;;;2.70;1.75;;;23.70;59.50;;;;;;4902916;29;20032;-76
2021/08/04 10:49:10;;;;;;;2.38;1.65;;;23.80;59.10;;;;;;4919215;29;20091;-75
2021/08/04 10:51:41;;;;;;;2.03;1.58;;;23.90;58.80;;;;;;4918385;29;20036;-75
2021/08/04 10:54:13;;;;;;;1.95;1.60;;;23.90;58.60;;;;;;4918966;29;20036;-76
2021/08/04 10:56:41;;;;;;;2.50;1.98;;;24.00;58.40;;;;;;4920132;29;20141;-75
2021/08/04 10:59:10;;;;;;;3.03;2.05;;;24.10;58.00;;;;;;4918528;29;20055;-75
2021/08/04 11:01:51;;;;;;;3.22;2.03;;;24.20;57.60;;;;;;4919808;29;20040;-75
2021/08/04 11:04:25;;;;;;;2.88;1.98;;;24.20;57.50;;;;;;4918707;29;20115;-75
2021/08/04 11:07:21;;;;;;;;;;;24.30;57.20;;;;;;4920475;29;20417;-74
2021/08/04 11:09:50;;;;;;;2.80;1.90;;;24.30;57.40;;;;;;4918310;29;20002;-76
2021/08/04 11:12:34;;;;;;;2.88;1.88;;;24.40;57.10;;;;;;4918399;29;20028;-76
2021/08/04 11:15:02;;;;;;;2.38;1.80;;;24.40;57.00;;;;;;4919202;29;20071;-75
2021/08/04 11:17:52;;;;;;;2.92;2.15;;;24.40;56.90;;;;;;4918347;29;20040;-75
2021/08/04 11:20:17;;;;;;;2.55;1.92;;;24.50;56.70;;;;;;4917695;29;20148;-76
2021/08/04 11:22:47;;;;;;;3.15;2.20;;;24.50;56.60;;;;;;4917499;29;20051;-76
2021/08/04 11:25:42;;;;;;;3.00;2.33;;;24.50;56.30;;;;;;4917527;29;20059;-77
2021/08/04 11:28:13;;;;;;;2.60;1.80;;;24.50;56.10;;;;;;4919009;29;20095;-75
2021/08/04 11:30:43;;;;;;;3.20;2.25;;;24.60;56.20;;;;;;4917870;29;20381;-78
2021/08/04 11:33:22;;;;;;;2.30;2.05;;;24.60;56.20;;;;;;4918727;29;20042;-75
2021/08/04 11:36:09;;;;;;;3.47;2.17;;;24.60;56.10;;;;;;4918489;29;20047;-76
2021/08/04 11:38:53;;;;;;;2.30;1.67;;;24.60;56.10;;;;;;4918966;29;20140;-75
2021/08/04 11:41:27;;;;;;;2.63;2.15;;;24.60;56.50;;;;;;4917965;29;20036;-76
2021/08/04 11:43:59;;;;;;;2.80;2.00;;;24.60;55.60;;;;;;4919108;29;20465;-76
2021/08/04 11:46:49;;;;;;;2.33;1.75;;;24.60;55.40;;;;;;4902208;29;20047;-77
2021/08/04 11:49:19;;;;;;;2.55;2.05;;;24.60;55.20;;;;;;4914988;29;20489;-76
2021/08/04 11:51:46;;;;;;;2.88;1.92;;;24.60;55.30;;;;;;4917400;29;20520;-77
2021/08/04 11:54:13;;;;;;;2.85;2.20;;;24.70;55.10;;;;;;4917431;29;20039;-78
2021/08/04 11:56:44;;;;;;;2.80;1.98;;;24.70;54.90;;;;;;4916396;29;20500;-77
2021/08/04 11:59:10;;;;;;;2.80;2.20;;;24.70;54.70;;;;;;4902513;29;20032;-78
2021/08/04 12:01:35;;;;;;;2.13;1.77;;;24.70;54.70;;;;;;4902169;29;20119;-77
2021/08/04 12:04:20;;;;;;;2.15;1.60;;;24.70;54.90;;;;;;4902115;29;20136;-77
2021/08/04 12:07:00;;;;;;;2.05;1.70;;;24.70;54.90;;;;;;4918551;29;20028;-77
2021/08/04 12:09:28;;;;;;;2.20;1.83;;;24.70;54.40;;;;;;4917391;29;20490;-76
2021/08/04 12:11:55;;;;;;;2.95;1.88;;;24.80;54.30;;;;;;4917255;29;20024;-76
2021/08/04 12:14:21;;;;;;;2.38;1.77;;;24.80;54.10;;;;;;4918649;29;20025;-76
2021/08/04 12:16:58;;;;;;;2.63;1.83;;;24.80;54.00;;;;;;4918488;29;20052;-76
2021/08/04 12:19:28;;;;;;;2.25;1.58;;;24.70;53.60;;;;;;4916422;29;20044;-78
2021/08/04 12:21:54;;;;;;;3.47;2.00;;;24.70;53.40;;;;;;4917130;29;20036;-77
2021/08/04 12:24:21;;;;;;;1.80;1.60;;;24.80;53.40;;;;;;4918348;29;20084;-78
2021/08/04 12:26:47;;;;;;;1.80;1.60;;;24.80;53.50;;;;;;4916976;29;20060;-77
2021/08/04 12:29:26;;;;;;;2.72;1.90;;;24.80;53.30;;;;;;4900997;29;20434;-79
2021/08/04 12:32:09;;;;;;;2.08;1.70;;;24.80;53.20;;;;;;4917607;29;20059;-78
2021/08/04 12:34:51;;;;;;;2.42;1.58;;;24.80;53.30;;;;;;4901350;29;20028;-78
2021/08/04 12:37:18;;;;;;;2.03;1.67;;;24.90;53.50;;;;;;4901129;29;20040;-78
2021/08/04 12:39:45;;;;;;;2.20;1.90;;;24.80;53.50;;;;;;4900817;29;20038;-77
2021/08/04 12:42:12;;;;;;;3.40;1.95;;;24.80;53.60;;;;;;4901176;29;20441;-77
2021/08/04 12:44:38;;;;;;;2.22;1.67;;;24.90;53.70;;;;;;4901090;29;20107;-77
2021/08/04 12:47:12;;;;;;;2.90;1.83;;;24.90;53.50;;;;;;4917695;29;20115;-77
2021/08/04 12:49:38;;;;;;;2.05;1.77;;;24.90;53.40;;;;;;4917273;29;20040;-77
2021/08/04 12:52:04;;;;;;;2.40;1.95;;;24.90;53.40;;;;;;4916776;29;20043;-77
2021/08/04 12:54:33;;;;;;;3.53;2.15;;;24.90;53.10;;;;;;4901751;29;20124;-77